createdAt,value
2022-09-25T00:01:19.785Z,2.75
2022-09-25T00:03:49.386Z,3.40
2022-09-25T00:06:20.889Z,3.22
2022-09-25T00:08:49.650Z,2.97
2022-09-25T00:11:20.076Z,3.13
2022-09-25T00:13:48.326Z,2.53
2022-09-25T00:16:19.044Z,2.05
2022-09-25T00:19:04.597Z,2.80
2022-09-25T00:21:35.089Z,2.65
2022-09-25T00:24:05.328Z,2.25
2022-09-25T00:26:35.805Z,3.17
2022-09-25T00:29:04.252Z,2.33
2022-09-25T00:31:32.866Z,1.90
2022-09-25T00:34:02.932Z,2.00
2022-09-25T00:36:31.982Z,2.67
2022-09-25T00:39:02.011Z,2.83
2022-09-25T00:41:32.303Z,3.00
2022-09-25T00:44:03.221Z,3.50
2022-09-25T00:46:35.526Z,3.28
2022-09-25T00:49:06.221Z,3.15
2022-09-25T00:51:41.200Z,2.63
2022-09-25T00:54:16.397Z,2.20
2022-09-25T00:56:48.492Z,2.80
2022-09-25T00:59:19.750Z,2.03
2022-09-25T01:01:48.255Z,2.25
2022-09-25T01:04:16.873Z,2.63
2022-09-25T01:06:45.525Z,2.88
2022-09-25T01:09:14.960Z,3.03
2022-09-25T01:11:43.085Z,3.33
2022-09-25T01:14:11.407Z,3.92
2022-09-25T01:16:47.032Z,3.40
2022-09-25T01:19:27.265Z,2.85
2022-09-25T01:22:04.032Z,3.08
2022-09-25T01:24:49.829Z,3.95
2022-09-25T01:27:41.216Z,3.75
2022-09-25T01:30:13.518Z,3.17
2022-09-25T01:32:55.045Z,3.97
2022-09-25T01:35:32.944Z,3.33
2022-09-25T01:38:07.974Z,3.22
2022-09-25T01:40:41.491Z,3.83
2022-09-25T01:43:14.780Z,3.30
2022-09-25T01:45:51.397Z,4.18
2022-09-25T01:48:25.064Z,3.33
2022-09-25T01:50:58.971Z,4.40
2022-09-25T01:53:32.480Z,4.32
2022-09-25T01:56:04.644Z,3.80
2022-09-25T01:58:38.065Z,4.25
2022-09-25T02:01:13.107Z,4.32
2022-09-25T02:03:45.401Z,3.15
2022-09-25T02:06:19.944Z,3.88
2022-09-25T02:08:52.208Z,3.95
2022-09-25T02:11:20.994Z,4.00
2022-09-25T02:13:53.472Z,3.67
2022-09-25T02:16:28.644Z,3.50
2022-09-25T02:19:14.171Z,3.10
2022-09-25T02:21:48.892Z,3.50
2022-09-25T02:24:22.935Z,3.05
2022-09-25T02:26:52.294Z,3.45
2022-09-25T02:31:55.125Z,3.28
2022-09-25T02:34:24.086Z,3.85
2022-09-25T02:36:53.061Z,4.65
2022-09-25T02:39:24.025Z,4.10
2022-09-25T02:42:10.230Z,3.83
2022-09-25T02:44:51.550Z,4.80
2022-09-25T02:47:28.194Z,3.92
2022-09-25T02:50:05.441Z,4.80
2022-09-25T02:52:42.191Z,4.40
2022-09-25T02:55:16.375Z,3.40
2022-09-25T02:57:49.698Z,4.65
2022-09-25T03:00:17.934Z,4.50
2022-09-25T03:02:52.357Z,4.53
2022-09-25T03:05:21.435Z,5.40
2022-09-25T03:08:07.052Z,4.00
2022-09-25T03:10:37.817Z,3.60
2022-09-25T03:13:20.015Z,4.97
2022-09-25T03:15:51.879Z,5.10
2022-09-25T03:18:21.853Z,4.30
2022-09-25T03:20:49.857Z,4.40
2022-09-25T03:23:17.869Z,3.83
2022-09-25T03:25:49.861Z,3.97
2022-09-25T03:28:19.408Z,4.03
2022-09-25T03:30:57.178Z,3.78
2022-09-25T03:33:27.500Z,4.55
2022-09-25T03:36:03.754Z,3.80
2022-09-25T03:38:31.747Z,4.20
2022-09-25T03:40:59.774Z,5.15
2022-09-25T03:43:27.990Z,4.45
2022-09-25T03:45:56.093Z,4.63
2022-09-25T03:48:24.312Z,5.07
2022-09-25T03:50:55.147Z,4.82
2022-09-25T03:53:23.170Z,4.70
2022-09-25T03:55:51.174Z,4.47
2022-09-25T03:58:19.412Z,5.40
2022-09-25T04:00:48.062Z,4.63
2022-09-25T04:03:16.885Z,4.47
2022-09-25T04:05:46.065Z,4.40
2022-09-25T04:08:16.070Z,3.42
2022-09-25T04:10:44.186Z,4.85
2022-09-25T04:13:12.687Z,4.40
2022-09-25T04:15:41.002Z,4.53
2022-09-25T04:18:09.414Z,5.40
2022-09-25T04:20:38.288Z,5.38
2022-09-25T04:23:06.211Z,4.63
2022-09-25T04:25:35.806Z,5.88
2022-09-25T04:28:04.462Z,5.32
2022-09-25T04:30:32.632Z,5.73
2022-09-25T04:33:18.560Z,5.55
2022-09-25T04:35:46.448Z,5.53
2022-09-25T04:38:14.493Z,5.28
2022-09-25T04:40:45.797Z,5.00
2022-09-25T04:43:13.960Z,4.57
2022-09-25T04:45:41.931Z,3.83
2022-09-25T04:48:09.891Z,4.35
2022-09-25T04:50:37.824Z,4.10
2022-09-25T04:53:05.951Z,4.70
2022-09-25T04:55:33.889Z,4.35
2022-09-25T04:58:03.175Z,3.90
2022-09-25T05:00:32.679Z,4.60
2022-09-25T05:03:03.874Z,4.57
2022-09-25T05:05:33.124Z,4.43
2022-09-25T05:08:02.726Z,4.80
2022-09-25T05:10:34.895Z,4.32
2022-09-25T05:13:05.722Z,3.95
2022-09-25T05:15:34.694Z,3.58
2022-09-25T05:18:04.398Z,4.20
2022-09-25T05:20:32.614Z,4.22
2022-09-25T05:23:03.367Z,4.88
2022-09-25T05:25:32.308Z,4.10
2022-09-25T05:28:01.436Z,4.55
2022-09-25T05:30:32.837Z,5.10
2022-09-25T05:33:01.127Z,4.68
2022-09-25T05:35:31.001Z,4.35
2022-09-25T05:37:59.230Z,4.72
2022-09-25T05:40:27.187Z,4.63
2022-09-25T05:42:56.064Z,4.63
2022-09-25T05:45:24.607Z,3.72
2022-09-25T05:48:02.914Z,3.83
2022-09-25T05:50:32.219Z,3.25
2022-09-25T05:53:02.246Z,3.25
2022-09-25T05:55:31.179Z,2.90
2022-09-25T05:58:02.785Z,2.53
2022-09-25T06:00:32.498Z,2.70
2022-09-25T06:05:29.974Z,4.05
2022-09-25T06:07:58.014Z,2.55
2022-09-25T06:10:26.690Z,2.60
2022-09-25T06:12:58.701Z,2.90
2022-09-25T06:15:27.704Z,3.15
2022-09-25T06:17:55.994Z,3.28
2022-09-25T06:20:25.810Z,2.75
2022-09-25T06:22:54.499Z,2.92
2022-09-25T06:25:25.785Z,3.42
2022-09-25T06:27:54.978Z,2.85
2022-09-25T06:30:24.184Z,2.60
2022-09-25T06:32:58.077Z,2.60
2022-09-25T06:35:27.923Z,2.53
2022-09-25T06:37:59.378Z,2.97
2022-09-25T06:40:29.075Z,2.50
2022-09-25T06:45:26.677Z,2.10
2022-09-25T06:47:57.720Z,2.17
2022-09-25T06:50:31.511Z,2.22
2022-09-25T06:53:00.175Z,3.00
2022-09-25T06:55:28.619Z,2.47
2022-09-25T06:57:56.572Z,2.47
2022-09-25T07:00:24.774Z,1.88
2022-09-25T07:03:10.353Z,2.50
2022-09-25T07:05:39.642Z,3.35
2022-09-25T07:08:07.708Z,3.58
2022-09-25T07:10:35.581Z,3.42
2022-09-25T07:13:04.698Z,2.95
2022-09-25T07:15:32.732Z,3.88
2022-09-25T07:18:00.713Z,3.80
2022-09-25T07:20:28.703Z,2.97
2022-09-25T07:23:03.859Z,3.45
2022-09-25T07:25:32.122Z,3.20
2022-09-25T07:28:00.345Z,3.85
2022-09-25T07:30:29.649Z,3.63
2022-09-25T07:33:00.235Z,4.93
2022-09-25T07:35:28.412Z,3.55
2022-09-25T07:37:56.937Z,3.17
2022-09-25T07:40:27.368Z,2.45
2022-09-25T07:42:59.385Z,2.88
2022-09-25T07:45:27.460Z,3.50
2022-09-25T07:47:57.174Z,3.50
2022-09-25T07:52:53.751Z,3.58
2022-09-25T07:55:22.327Z,3.27
2022-09-25T07:57:52.057Z,4.60
2022-09-25T08:02:56.903Z,3.05
2022-09-25T08:05:24.825Z,3.22
2022-09-25T08:07:53.808Z,3.58
2022-09-25T08:10:22.477Z,4.18
2022-09-25T08:12:52.150Z,2.72
2022-09-25T08:15:20.509Z,2.85
2022-09-25T08:17:48.417Z,3.35
2022-09-25T08:20:16.414Z,3.35
2022-09-25T08:22:44.469Z,2.63
2022-09-25T08:25:13.015Z,2.53
2022-09-25T08:27:41.390Z,3.78
2022-09-25T08:30:13.649Z,2.85
2022-09-25T08:32:41.809Z,3.13
2022-09-25T08:35:10.638Z,2.78
2022-09-25T08:37:41.796Z,3.57
2022-09-25T08:40:18.037Z,2.67
2022-09-25T08:42:49.436Z,2.28
2022-09-25T08:45:45.955Z,2.28
2022-09-25T08:48:38.921Z,2.45
2022-09-25T08:51:09.054Z,2.38
2022-09-25T08:53:38.727Z,2.63
2022-09-25T08:58:52.303Z,1.92
2022-09-25T09:01:25.791Z,2.50
2022-09-25T09:04:03.145Z,2.17
2022-09-25T09:06:33.771Z,2.10
2022-09-25T09:09:07.114Z,2.22
2022-09-25T09:11:40.526Z,1.98
2022-09-25T09:14:18.179Z,1.73
2022-09-25T09:16:53.197Z,2.22
2022-09-25T09:19:21.207Z,2.42
2022-09-25T09:21:55.794Z,2.38
2022-09-25T09:24:32.453Z,3.10
2022-09-25T09:27:25.661Z,2.58
2022-09-25T09:30:06.110Z,2.70
2022-09-25T09:32:49.539Z,3.55
2022-09-25T09:35:33.450Z,3.55
2022-09-25T09:38:11.815Z,2.60
2022-09-25T09:40:54.645Z,2.85
2022-09-25T09:43:36.602Z,2.97
2022-09-25T09:46:13.816Z,2.58
2022-09-25T09:48:51.038Z,2.65
2022-09-25T09:51:23.433Z,2.58
2022-09-25T09:53:54.704Z,2.17
2022-09-25T09:56:26.758Z,2.83
2022-09-25T09:58:57.512Z,2.15
2022-09-25T10:01:42.203Z,2.65
2022-09-25T10:04:15.619Z,2.13
2022-09-25T10:06:48.357Z,3.53
2022-09-25T10:09:17.468Z,2.70
2022-09-25T10:11:48.448Z,2.72
2022-09-25T10:14:21.348Z,2.13
2022-09-25T10:16:51.535Z,2.90
2022-09-25T10:19:24.566Z,3.10
2022-09-25T10:21:57.387Z,2.90
2022-09-25T10:24:51.571Z,2.40
2022-09-25T10:27:30.868Z,2.78
2022-09-25T10:30:03.813Z,2.75
2022-09-25T10:32:34.860Z,3.15
2022-09-25T10:35:04.601Z,3.28
2022-09-25T10:37:35.820Z,2.58
2022-09-25T10:40:06.980Z,2.75
2022-09-25T10:42:40.939Z,2.22
2022-09-25T10:45:30.929Z,2.33
2022-09-25T10:48:16.716Z,2.88
2022-09-25T10:50:47.796Z,2.60
2022-09-25T10:53:29.851Z,2.88
2022-09-25T10:56:04.968Z,2.65
2022-09-25T10:58:37.781Z,3.22
2022-09-25T11:01:10.266Z,2.92
2022-09-25T11:03:40.993Z,2.90
2022-09-25T11:06:20.919Z,2.97
2022-09-25T11:08:55.771Z,2.10
2022-09-25T11:11:27.275Z,3.13
2022-09-25T11:13:58.240Z,3.30
2022-09-25T11:16:48.686Z,2.83
2022-09-25T11:19:22.305Z,2.50
2022-09-25T11:22:00.773Z,3.70
2022-09-25T11:24:47.052Z,3.40
2022-09-25T11:27:21.584Z,2.60
2022-09-25T11:29:58.366Z,2.92
2022-09-25T11:32:32.121Z,3.25
2022-09-25T11:35:37.544Z,4.18
2022-09-25T11:38:17.842Z,3.25
2022-09-25T11:41:16.743Z,2.88
2022-09-25T11:43:58.256Z,2.95
2022-09-25T11:46:36.313Z,3.22
2022-09-25T11:49:15.716Z,2.72
2022-09-25T11:52:18.867Z,3.40
2022-09-25T11:55:24.431Z,2.97
2022-09-25T11:58:01.993Z,3.22
2022-09-25T12:00:45.315Z,3.15
2022-09-25T12:03:45.308Z,3.53
2022-09-25T12:07:00.937Z,3.22
2022-09-25T12:09:45.475Z,3.22
2022-09-25T12:12:24.070Z,2.90
2022-09-25T12:14:59.898Z,3.15
2022-09-25T12:17:35.882Z,2.75
2022-09-25T12:20:12.455Z,3.70
2022-09-25T12:22:49.895Z,2.78
2022-09-25T12:25:33.643Z,2.92
2022-09-25T12:28:11.686Z,4.82
2022-09-25T12:30:48.297Z,4.35
2022-09-25T12:33:25.267Z,5.70
2022-09-25T12:35:59.552Z,4.90
2022-09-25T12:38:36.232Z,5.55
2022-09-25T12:41:10.858Z,5.07
2022-09-25T12:43:48.761Z,4.72
2022-09-25T12:46:23.338Z,4.65
2022-09-25T12:48:56.359Z,5.60
2022-09-25T12:51:29.274Z,5.55
2022-09-25T12:54:00.930Z,5.20
2022-09-25T12:56:34.717Z,4.57
2022-09-25T12:59:10.854Z,5.07
2022-09-25T13:01:47.702Z,4.97
2022-09-25T13:04:35.226Z,4.30
2022-09-25T13:07:10.718Z,4.72
2022-09-25T13:09:43.436Z,3.78
2022-09-25T13:12:19.669Z,3.72
2022-09-25T13:14:53.175Z,3.85
2022-09-25T13:17:21.435Z,3.28
2022-09-25T13:19:49.409Z,3.15
2022-09-25T13:22:21.471Z,4.15
2022-09-25T13:24:53.511Z,2.90
2022-09-25T13:27:24.153Z,1.80
2022-09-25T13:29:58.282Z,1.90
2022-09-25T13:32:31.711Z,1.80
2022-09-25T13:35:03.948Z,1.33
2022-09-25T13:37:35.200Z,1.92
2022-09-25T13:40:33.908Z,1.88
2022-09-25T13:43:17.682Z,1.77
2022-09-25T13:45:48.290Z,1.20
2022-09-25T13:48:35.983Z,1.45
2022-09-25T13:51:37.507Z,1.70
2022-09-25T13:54:25.083Z,1.00
2022-09-25T13:56:55.181Z,0.82
2022-09-25T14:00:02.359Z,1.20
2022-09-25T14:02:44.270Z,1.55
2022-09-25T14:05:17.995Z,0.90
2022-09-25T14:07:48.723Z,0.88
2022-09-25T14:10:17.947Z,0.70
2022-09-25T14:12:48.242Z,0.93
2022-09-25T14:15:26.408Z,1.48
2022-09-25T14:17:58.486Z,0.70
2022-09-25T14:20:36.396Z,1.75
2022-09-25T14:23:07.789Z,0.47
2022-09-25T14:25:38.903Z,1.23
2022-09-25T14:28:19.567Z,0.82
2022-09-25T14:31:21.269Z,1.25
2022-09-25T14:34:19.404Z,1.50
2022-09-25T14:37:00.522Z,1.05
2022-09-25T14:39:42.231Z,1.15
2022-09-25T14:42:43.855Z,1.00
2022-09-25T14:45:42.301Z,1.30
2022-09-25T14:48:15.896Z,1.30
2022-09-25T14:50:50.295Z,0.85
2022-09-25T14:53:25.734Z,0.60
2022-09-25T14:55:55.246Z,0.88
2022-09-25T14:58:27.752Z,1.02
2022-09-25T15:00:59.967Z,0.90
2022-09-25T15:03:33.134Z,0.90
2022-09-25T15:06:02.752Z,1.00
2022-09-25T15:08:36.623Z,0.57
2022-09-25T15:11:12.125Z,0.82
2022-09-25T15:13:40.302Z,1.27
2022-09-25T15:16:34.066Z,0.95
2022-09-25T15:19:04.265Z,1.17
2022-09-25T15:21:36.927Z,0.70
2022-09-25T15:24:08.253Z,0.93
2022-09-25T15:26:49.292Z,0.75
2022-09-25T15:29:21.189Z,1.27
2022-09-25T15:31:51.776Z,0.90
2022-09-25T15:34:25.128Z,1.05
2022-09-25T15:36:54.827Z,0.90
2022-09-25T15:41:52.819Z,0.70
2022-09-25T15:44:22.605Z,1.13
2022-09-25T15:49:25.410Z,1.00
2022-09-25T15:52:00.862Z,1.17
2022-09-25T15:54:38.050Z,0.77
2022-09-25T15:57:11.155Z,1.13
2022-09-25T16:00:03.082Z,1.00
2022-09-25T16:02:54.011Z,0.95
2022-09-25T16:05:29.588Z,0.90
2022-09-25T16:10:51.353Z,0.73
2022-09-25T16:13:21.432Z,1.00
2022-09-25T16:15:54.374Z,0.88
2022-09-25T16:18:32.364Z,0.80
2022-09-25T16:21:13.808Z,1.00
2022-09-25T16:23:42.969Z,0.65
2022-09-25T16:26:22.093Z,0.60
2022-09-25T16:29:00.631Z,1.02
2022-09-25T16:31:29.077Z,0.88
2022-09-25T16:33:58.020Z,0.73
2022-09-25T16:36:27.953Z,0.70
2022-09-25T16:39:22.080Z,1.00
2022-09-25T16:41:52.189Z,1.13
2022-09-25T16:44:21.566Z,0.90
2022-09-25T16:47:07.539Z,0.80
2022-09-25T16:49:35.906Z,0.93
2022-09-25T16:52:07.708Z,0.90
2022-09-25T16:54:38.360Z,0.93
2022-09-25T16:57:07.726Z,0.88
2022-09-25T16:59:35.805Z,1.10
2022-09-25T17:02:17.338Z,1.05
2022-09-25T17:04:45.412Z,0.70
2022-09-25T17:07:14.932Z,1.30
2022-09-25T17:09:43.103Z,1.13
2022-09-25T17:12:20.322Z,2.13
2022-09-25T17:14:50.030Z,1.02
2022-09-25T17:19:47.145Z,1.08
2022-09-25T17:22:15.040Z,0.90
2022-09-25T17:24:43.111Z,1.00
2022-09-25T17:27:14.901Z,0.98
2022-09-25T17:29:44.277Z,0.40
2022-09-25T17:32:13.960Z,0.98
2022-09-25T17:37:09.976Z,0.60
2022-09-25T17:39:37.974Z,0.63
2022-09-25T17:42:06.286Z,0.73
2022-09-25T17:44:35.548Z,0.90
2022-09-25T17:47:04.185Z,0.80
2022-09-25T17:49:32.327Z,0.77
2022-09-25T17:52:00.440Z,0.70
2022-09-25T17:54:29.826Z,1.58
2022-09-25T17:56:58.239Z,1.00
2022-09-25T17:59:26.214Z,1.25
2022-09-25T18:01:57.185Z,1.30
2022-09-25T18:04:26.515Z,0.95
2022-09-25T18:06:55.145Z,1.05
2022-09-25T18:09:23.362Z,1.45
2022-09-25T18:11:51.453Z,1.20
2022-09-25T18:14:19.458Z,1.02
2022-09-25T18:16:47.359Z,1.77
2022-09-25T18:19:36.333Z,1.90
2022-09-25T18:22:21.431Z,2.30
2022-09-25T18:24:52.695Z,1.50
2022-09-25T18:27:21.476Z,1.73
2022-09-25T18:29:49.564Z,1.40
2022-09-25T18:32:17.570Z,2.42
2022-09-25T18:34:46.850Z,1.73
2022-09-25T18:37:14.733Z,1.40
2022-09-25T18:39:43.442Z,2.17
2022-09-25T18:42:11.414Z,2.15
2022-09-25T18:44:42.543Z,2.80
2022-09-25T18:47:13.708Z,2.40
2022-09-25T18:49:42.269Z,1.90
2022-09-25T18:52:11.624Z,3.15
2022-09-25T18:54:41.877Z,1.70
2022-09-25T18:57:09.962Z,1.90
2022-09-25T18:59:38.532Z,2.92
2022-09-25T19:02:07.420Z,2.85
2022-09-25T19:04:35.970Z,1.80
2022-09-25T19:07:03.976Z,2.13
2022-09-25T19:09:33.347Z,1.88
2022-09-25T19:12:01.466Z,2.30
2022-09-25T19:14:31.129Z,1.80
2022-09-25T19:16:59.019Z,1.80
2022-09-25T19:19:27.734Z,1.52
2022-09-25T19:21:55.847Z,1.38
2022-09-25T19:24:24.078Z,2.40
2022-09-25T19:26:53.602Z,3.25
2022-09-25T19:29:21.591Z,2.65
2022-09-25T19:31:49.723Z,2.30
2022-09-25T19:34:17.646Z,2.42
2022-09-25T19:36:45.604Z,2.35
2022-09-25T19:39:13.783Z,2.03
2022-09-25T19:41:43.284Z,2.40
2022-09-25T19:44:14.894Z,1.80
2022-09-25T19:46:43.860Z,2.60
2022-09-25T19:49:12.426Z,2.40
2022-09-25T19:51:41.253Z,1.73
2022-09-25T19:54:12.761Z,1.50
2022-09-25T19:56:42.179Z,2.05
2022-09-25T19:59:14.054Z,1.30
2022-09-25T20:01:43.858Z,2.42
2022-09-25T20:06:47.646Z,1.58
2022-09-25T20:09:17.732Z,1.50
2022-09-25T20:11:48.922Z,1.65
2022-09-25T20:14:25.236Z,2.33
2022-09-25T20:16:56.275Z,1.60
2022-09-25T20:19:28.070Z,1.58
2022-09-25T20:22:05.984Z,1.40
2022-09-25T20:24:33.953Z,1.95
2022-09-25T20:27:13.851Z,1.95
2022-09-25T20:29:45.981Z,1.83
2022-09-25T20:32:22.783Z,2.13
2022-09-25T20:34:51.406Z,1.52
2022-09-25T20:37:26.186Z,2.60
2022-09-25T20:39:54.210Z,2.70
2022-09-25T20:42:27.819Z,1.77
2022-09-25T20:44:58.824Z,2.40
2022-09-25T20:47:36.049Z,2.10
2022-09-25T20:50:09.280Z,1.88
2022-09-25T20:52:42.116Z,1.45
2022-09-25T20:55:12.061Z,1.60
2022-09-25T20:57:42.983Z,2.55
2022-09-25T21:00:18.379Z,1.55
2022-09-25T21:02:53.231Z,1.85
2022-09-25T21:05:26.665Z,1.88
2022-09-25T21:07:57.222Z,1.27
2022-09-25T21:10:31.070Z,1.35
2022-09-25T21:13:07.468Z,1.80
2022-09-25T21:15:38.025Z,1.30
2022-09-25T21:18:08.937Z,1.27
2022-09-25T21:20:36.840Z,1.70
2022-09-25T21:23:08.081Z,1.25
2022-09-25T21:25:38.601Z,1.50
2022-09-25T21:28:08.418Z,1.70
2022-09-25T21:30:38.570Z,1.52
2022-09-25T21:33:06.589Z,2.00
2022-09-25T21:35:34.546Z,1.38
2022-09-25T21:38:03.827Z,2.00
2022-09-25T21:40:31.789Z,2.03
2022-09-25T21:42:59.794Z,1.38
2022-09-25T21:45:27.715Z,1.60
2022-09-25T21:47:56.948Z,1.40
2022-09-25T21:50:25.142Z,1.63
2022-09-25T21:52:53.930Z,1.75
2022-09-25T21:55:21.933Z,1.50
2022-09-25T21:57:50.052Z,1.30
2022-09-25T22:00:20.034Z,1.10
2022-09-25T22:02:50.169Z,1.80
2022-09-25T22:05:19.672Z,1.95
2022-09-25T22:07:47.664Z,1.23
2022-09-25T22:10:15.696Z,1.00
2022-09-25T22:12:43.636Z,1.23
2022-09-25T22:15:12.709Z,1.27
2022-09-25T22:17:40.577Z,0.82
2022-09-25T22:20:10.365Z,1.20
2022-09-25T22:25:08.707Z,1.42
2022-09-25T22:27:36.614Z,1.02
2022-09-25T22:30:05.011Z,1.10
2022-09-25T22:32:32.920Z,1.23
2022-09-25T22:35:00.828Z,1.00
2022-09-25T22:37:28.677Z,1.02
2022-09-25T22:39:58.091Z,1.02
2022-09-25T22:42:26.026Z,0.88
2022-09-25T22:44:54.038Z,1.13
2022-09-25T22:47:22.005Z,1.80
2022-09-25T22:49:49.894Z,1.05
2022-09-25T22:52:18.075Z,1.55
2022-09-25T22:54:46.034Z,0.95
2022-09-25T22:57:15.302Z,1.42
2022-09-25T22:59:43.378Z,0.93
2022-09-25T23:02:11.364Z,0.95
2022-09-25T23:04:39.415Z,1.42
2022-09-25T23:07:07.460Z,1.60
2022-09-25T23:09:35.520Z,1.73
2022-09-25T23:12:03.556Z,1.38
2022-09-25T23:14:33.109Z,1.33
2022-09-25T23:17:01.480Z,0.95
2022-09-25T23:19:29.459Z,1.27
2022-09-25T23:21:57.581Z,1.88
2022-09-25T23:24:26.386Z,1.45
2022-09-25T23:26:54.976Z,1.23
2022-09-25T23:29:23.767Z,1.83
2022-09-25T23:31:53.173Z,1.60
2022-09-25T23:34:21.644Z,1.50
2022-09-25T23:36:49.653Z,1.70
2022-09-25T23:39:19.524Z,1.60
2022-09-25T23:44:15.789Z,2.13
2022-09-25T23:46:44.759Z,1.80
2022-09-25T23:49:14.871Z,1.33
2022-09-25T23:51:42.959Z,1.05
2022-09-25T23:54:12.089Z,0.80
2022-09-25T23:56:41.126Z,1.30
2022-09-25T23:59:10.749Z,1.00
